Time;durP1;ratioP1;P1;durP2;ratioP2;P2;SDS_P1;SDS_P2;PMS_P1;PMS_P2;Temp;Humidity;BMP_temperature;BMP_pressure;BME280_temperature;BME280_humidity;BME280_pressure;Samples;Min_cycle;Max_cycle;Signal;HPM_P1;HPM_P2
2021/10/01 00:00:55;;;;;;;3.28;1.73;;;11.20;95.80;;;;;;6299762;22;20069;-77
2021/10/01 00:03:20;;;;;;;2.13;1.63;;;11.20;95.80;;;;;;6300299;22;20426;-76
2021/10/01 00:05:46;;;;;;;3.55;2.03;;;11.10;95.80;;;;;;6300189;22;20003;-77
2021/10/01 00:08:11;;;;;;;2.70;1.65;;;11.10;95.80;;;;;;6300775;22;20003;-77
2021/10/01 00:10:37;;;;;;;2.58;1.88;;;11.10;95.80;;;;;;6299579;22;19999;-77
2021/10/01 00:13:03;;;;;;;4.07;1.88;;;11.10;95.90;;;;;;6299389;22;20074;-77
2021/10/01 00:15:28;;;;;;;5.72;1.92;;;11.10;95.80;;;;;;6299956;22;19999;-77
2021/10/01 00:17:54;;;;;;;2.70;1.50;;;11.10;95.90;;;;;;6298105;22;20062;-77
2021/10/01 00:20:19;;;;;;;2.55;1.75;;;11.10;95.90;;;;;;6273302;22;20015;-77
2021/10/01 00:22:45;;;;;;;3.45;1.88;;;11.10;95.90;;;;;;6300220;22;20031;-77
2021/10/01 00:25:11;;;;;;;2.35;1.85;;;11.00;95.90;;;;;;6299784;22;20011;-76
2021/10/01 00:27:36;;;;;;;3.65;1.85;;;11.00;96.00;;;;;;6300923;22;20631;-77
2021/10/01 00:30:04;;;;;;;4.10;1.90;;;11.00;96.00;;;;;;6301201;22;20007;-77
2021/10/01 00:32:29;;;;;;;3.35;1.80;;;11.00;96.10;;;;;;6300533;22;20003;-78
2021/10/01 00:34:55;;;;;;;4.00;1.70;;;10.90;96.10;;;;;;6299316;22;20003;-77
2021/10/01 00:37:20;;;;;;;1.92;1.58;;;10.90;96.20;;;;;;6302365;22;20038;-76
2021/10/01 00:39:46;;;;;;;3.30;1.80;;;10.90;96.30;;;;;;6301549;22;20029;-77
2021/10/01 00:42:11;;;;;;;3.50;1.90;;;10.80;96.30;;;;;;6298934;22;20011;-78
2021/10/01 00:44:37;;;;;;;3.30;2.17;;;10.80;96.50;;;;;;6299785;22;20004;-77
2021/10/01 00:47:03;;;;;;;3.15;1.83;;;10.80;96.50;;;;;;6300457;22;20007;-77
2021/10/01 00:49:28;;;;;;;6.75;1.85;;;10.80;96.60;;;;;;6271292;22;20035;-77
2021/10/01 00:51:54;;;;;;;2.25;1.73;;;10.70;96.50;;;;;;6300014;22;20495;-77
2021/10/01 00:54:19;;;;;;;2.63;2.13;;;10.70;96.60;;;;;;6299269;22;20011;-76
2021/10/01 00:56:45;;;;;;;3.35;2.00;;;10.60;96.60;;;;;;6299670;22;20000;-77
2021/10/01 00:59:11;;;;;;;3.25;2.00;;;10.60;96.70;;;;;;6299115;22;20003;-76
2021/10/01 01:01:36;;;;;;;3.33;1.80;;;10.60;96.70;;;;;;6299074;22;19999;-78
2021/10/01 01:04:07;;;;;;;2.38;1.85;;;10.60;96.70;;;;;;6272804;22;20005;-78
2021/10/01 01:07:05;;;;;;;2.30;1.58;;;10.50;96.80;;;;;;6301345;22;20003;-77
2021/10/01 01:09:31;;;;;;;5.55;1.73;;;10.50;97.00;;;;;;6300741;22;19999;-76
2021/10/01 01:12:04;;;;;;;2.80;1.70;;;10.50;97.10;;;;;;6299935;22;20082;-77
2021/10/01 01:14:48;;;;;;;;;;;10.40;97.10;;;;;;6301393;22;20004;-77
2021/10/01 01:17:22;;;;;;;3.83;1.50;;;10.40;97.10;;;;;;6302393;22;20267;-76
2021/10/01 01:20:09;;;;;;;5.55;2.20;;;10.30;97.10;;;;;;6299811;22;20004;-75
2021/10/01 01:22:43;;;;;;;2.08;1.48;;;10.30;97.20;;;;;;6303438;22;20003;-76
2021/10/01 01:25:38;;;;;;;2.63;1.92;;;10.30;97.30;;;;;;6302165;22;20083;-75
2021/10/01 01:28:13;;;;;;;2.40;1.75;;;10.20;97.30;;;;;;6301053;22;20037;-76
2021/10/01 01:30:46;;;;;;;2.85;1.77;;;10.30;97.40;;;;;;6303718;22;20004;-75
2021/10/01 01:33:22;;;;;;;1.98;1.60;;;10.20;97.20;;;;;;6302243;22;20009;-77
2021/10/01 01:35:51;;;;;;;2.78;1.85;;;10.30;97.20;;;;;;6302043;22;19996;-76
2021/10/01 01:38:28;;;;;;;3.78;1.55;;;10.20;97.20;;;;;;6302924;22;19999;-76
2021/10/01 01:40:58;;;;;;;2.25;1.60;;;10.20;97.00;;;;;;6274690;22;20006;-76
2021/10/01 01:43:26;;;;;;;2.85;1.40;;;10.20;97.00;;;;;;6301441;22;20000;-76
2021/10/01 01:45:52;;;;;;;4.15;1.42;;;10.30;97.00;;;;;;6301367;22;20022;-75
2021/10/01 01:48:18;;;;;;;3.35;1.50;;;10.30;97.00;;;;;;6301013;22;20315;-77
2021/10/01 01:50:45;;;;;;;3.05;1.83;;;10.30;97.00;;;;;;6301352;22;20053;-77
2021/10/01 01:53:12;;;;;;;2.70;1.63;;;10.30;96.90;;;;;;6300132;22;20795;-75
2021/10/01 01:55:38;;;;;;;6.05;1.80;;;10.30;96.90;;;;;;6302045;22;20057;-76
2021/10/01 01:58:05;;;;;;;2.95;1.67;;;10.30;96.90;;;;;;6302350;22;20099;-76
2021/10/01 02:00:32;;;;;;;2.10;1.65;;;10.30;96.80;;;;;;6302371;22;20117;-75
2021/10/01 02:03:01;;;;;;;1.73;1.45;;;10.30;96.80;;;;;;6303358;22;19995;-75
2021/10/01 02:05:27;;;;;;;2.35;1.27;;;10.30;96.90;;;;;;6302114;22;20335;-76
2021/10/01 02:07:55;;;;;;;3.25;1.50;;;10.20;96.80;;;;;;6301829;22;20423;-77
2021/10/01 02:10:22;;;;;;;3.03;1.48;;;10.20;96.90;;;;;;6302364;22;19996;-76
2021/10/01 02:12:54;;;;;;;2.30;1.50;;;10.20;96.90;;;;;;6300410;22;20005;-76
2021/10/01 02:15:21;;;;;;;2.58;1.52;;;10.20;96.90;;;;;;6300302;22;20339;-75
2021/10/01 02:17:49;;;;;;;1.70;1.60;;;10.20;96.90;;;;;;6301866;22;20007;-77
2021/10/01 02:20:16;;;;;;;4.53;1.65;;;10.20;96.90;;;;;;6300624;22;20037;-77
2021/10/01 02:22:43;;;;;;;1.80;1.52;;;10.20;96.90;;;;;;6301483;22;20000;-76
2021/10/01 02:27:56;;;;;;;3.78;1.50;;;10.10;96.90;;;;;;6298347;22;20161;-77
2021/10/01 02:30:22;;;;;;;2.47;1.30;;;10.10;96.90;;;;;;6300963;22;20007;-77
2021/10/01 02:33:01;;;;;;;3.92;1.65;;;10.10;97.00;;;;;;6302011;22;20002;-77
2021/10/01 02:35:27;;;;;;;3.67;1.48;;;10.10;97.00;;;;;;6302637;22;19999;-76
2021/10/01 02:37:53;;;;;;;2.78;1.58;;;10.00;97.10;;;;;;6275303;22;20018;-76
2021/10/01 02:40:20;;;;;;;2.85;1.90;;;10.00;97.20;;;;;;6301557;22;20003;-77
2021/10/01 02:42:45;;;;;;;2.90;1.30;;;10.00;97.40;;;;;;6300830;22;20013;-76
2021/10/01 02:45:12;;;;;;;2.83;1.50;;;10.00;97.20;;;;;;6301945;22;20325;-76
2021/10/01 02:47:38;;;;;;;1.95;1.35;;;10.00;97.30;;;;;;6272808;22;20011;-77
2021/10/01 02:50:12;;;;;;;2.13;1.63;;;10.00;97.30;;;;;;6302243;22;20531;-77
2021/10/01 02:52:59;;;;;;;2.05;1.58;;;9.90;97.30;;;;;;6300902;22;19999;-78
2021/10/01 02:55:40;;;;;;;2.13;1.35;;;9.90;97.30;;;;;;6301371;22;20613;-77
2021/10/01 02:58:12;;;;;;;1.70;1.45;;;9.90;97.40;;;;;;6300683;22;20069;-77
2021/10/01 03:00:38;;;;;;;2.90;1.92;;;9.90;97.50;;;;;;6301320;22;20432;-76
2021/10/01 03:03:18;;;;;;;6.97;1.95;;;9.90;97.50;;;;;;6300447;22;20003;-77
2021/10/01 03:05:44;;;;;;;4.75;2.20;;;9.90;97.50;;;;;;6300051;22;20004;-78
2021/10/01 03:08:11;;;;;;;2.28;1.52;;;9.80;97.40;;;;;;6273440;22;20407;-76
2021/10/01 03:10:39;;;;;;;2.78;1.88;;;9.80;97.40;;;;;;6301569;22;20013;-76
2021/10/01 03:13:05;;;;;;;3.35;1.40;;;9.80;97.50;;;;;;6299300;22;20007;-77
2021/10/01 03:15:31;;;;;;;1.85;1.52;;;9.80;97.50;;;;;;6300237;22;20007;-77
2021/10/01 03:17:59;;;;;;;3.00;1.60;;;9.80;97.50;;;;;;6300527;22;20360;-77
2021/10/01 03:20:25;;;;;;;4.55;1.90;;;9.80;97.50;;;;;;6298825;22;20006;-76
2021/10/01 03:22:51;;;;;;;3.20;1.48;;;9.70;97.50;;;;;;6298045;22;19999;-77
2021/10/01 03:25:18;;;;;;;2.50;1.40;;;9.70;97.50;;;;;;6298011;22;20472;-76
2021/10/01 03:27:43;;;;;;;2.28;1.70;;;9.80;97.60;;;;;;6297840;22;20097;-76
2021/10/01 03:30:10;;;;;;;2.63;1.60;;;9.70;97.70;;;;;;6270327;22;20034;-75
2021/10/01 03:32:36;;;;;;;2.25;1.52;;;9.70;97.70;;;;;;6297299;22;20003;-76
2021/10/01 03:35:03;;;;;;;2.45;1.83;;;9.70;97.70;;;;;;6299106;22;20035;-77
2021/10/01 03:37:30;;;;;;;2.97;2.17;;;9.70;97.70;;;;;;6301027;22;20003;-76
2021/10/01 03:40:08;;;;;;;1.73;1.25;;;9.70;97.70;;;;;;6300953;22;20038;-76
2021/10/01 03:42:34;;;;;;;3.22;1.88;;;9.70;97.70;;;;;;6297975;22;20473;-76
2021/10/01 03:45:00;;;;;;;4.30;1.70;;;9.70;97.70;;;;;;6298127;22;20010;-76
2021/10/01 03:47:26;;;;;;;1.45;1.33;;;9.60;97.60;;;;;;6299738;22;20430;-76
2021/10/01 03:49:52;;;;;;;4.13;1.75;;;9.60;97.70;;;;;;6300006;22;20031;-76
2021/10/01 03:52:17;;;;;;;3.58;1.50;;;9.60;97.90;;;;;;6300096;22;19999;-76
2021/10/01 03:54:46;;;;;;;2.55;2.22;;;9.60;97.90;;;;;;6301228;22;20100;-76
2021/10/01 03:57:12;;;;;;;1.85;1.55;;;9.60;97.90;;;;;;6300281;22;20003;-76
2021/10/01 03:59:38;;;;;;;2.17;1.80;;;9.60;97.90;;;;;;6299029;22;20000;-77
2021/10/01 04:02:04;;;;;;;3.30;1.60;;;9.60;97.90;;;;;;6300442;22;19999;-77
2021/10/01 04:04:30;;;;;;;2.35;1.70;;;9.50;97.90;;;;;;6300978;22;20311;-76
2021/10/01 04:06:55;;;;;;;2.05;1.38;;;9.50;97.90;;;;;;6301053;22;20079;-77
2021/10/01 04:09:21;;;;;;;3.78;1.48;;;9.50;97.80;;;;;;6301672;22;20007;-77
2021/10/01 04:11:47;;;;;;;2.97;1.60;;;9.50;97.90;;;;;;6300895;22;20560;-77
2021/10/01 04:14:12;;;;;;;4.00;1.80;;;9.50;97.80;;;;;;6301847;22;19999;-76
2021/10/01 04:16:38;;;;;;;3.35;1.52;;;9.50;97.80;;;;;;6300772;22;20425;-77
2021/10/01 04:19:03;;;;;;;3.03;1.50;;;9.50;97.80;;;;;;6300514;22;19995;-76
2021/10/01 04:21:29;;;;;;;6.13;1.40;;;9.50;97.80;;;;;;6301679;22;20007;-76
2021/10/01 04:23:54;;;;;;;3.83;1.67;;;9.50;97.80;;;;;;6302168;22;20011;-77
2021/10/01 04:26:20;;;;;;;1.98;1.70;;;9.50;97.90;;;;;;6301075;22;20011;-77
2021/10/01 04:28:46;;;;;;;1.45;1.30;;;9.50;97.80;;;;;;6301665;22;20002;-77
2021/10/01 04:31:11;;;;;;;2.03;1.77;;;9.50;97.80;;;;;;6297249;22;20010;-77
2021/10/01 04:33:40;;;;;;;3.10;1.65;;;9.50;97.90;;;;;;6292949;22;20023;-75
2021/10/01 04:36:07;;;;;;;5.25;1.80;;;9.40;98.00;;;;;;6297113;22;20031;-76
2021/10/01 04:38:33;;;;;;;3.47;2.25;;;9.40;98.10;;;;;;6270452;22;19999;-76
2021/10/01 04:40:58;;;;;;;1.77;1.52;;;9.40;98.10;;;;;;6297218;22;20003;-76
2021/10/01 04:43:24;;;;;;;4.55;1.80;;;9.40;98.10;;;;;;6268923;22;20004;-76
2021/10/01 04:45:50;;;;;;;7.70;2.75;;;9.40;98.10;;;;;;6293645;22;20011;-77
2021/10/01 04:48:15;;;;;;;4.63;2.80;;;9.30;98.10;;;;;;6295949;22;20640;-76
2021/10/01 04:50:41;;;;;;;3.92;2.78;;;9.30;98.10;;;;;;6298749;22;20026;-78
2021/10/01 04:53:07;;;;;;;5.03;3.60;;;9.30;98.10;;;;;;6296948;22;19999;-76
2021/10/01 04:55:33;;;;;;;4.40;3.33;;;9.30;98.10;;;;;;6296680;22;20014;-76
2021/10/01 04:58:00;;;;;;;6.38;3.85;;;9.30;98.20;;;;;;6295781;22;20007;-76
2021/10/01 05:00:26;;;;;;;4.43;3.13;;;9.30;98.20;;;;;;6297977;22;19999;-77
2021/10/01 05:02:51;;;;;;;3.97;3.33;;;9.30;98.20;;;;;;6297861;22;20014;-77
2021/10/01 05:05:17;;;;;;;7.10;3.65;;;9.30;98.20;;;;;;6298484;22;20408;-77
2021/10/01 05:07:42;;;;;;;6.20;2.80;;;9.30;98.30;;;;;;6296382;22;20023;-77
2021/10/01 05:10:08;;;;;;;4.43;2.65;;;9.30;98.40;;;;;;6298516;22;20010;-76
2021/10/01 05:12:34;;;;;;;4.55;2.28;;;9.20;98.40;;;;;;6296126;22;20535;-77
2021/10/01 05:15:00;;;;;;;2.33;2.13;;;9.30;98.40;;;;;;6297473;22;20003;-77
2021/10/01 05:17:25;;;;;;;5.65;1.90;;;9.30;98.30;;;;;;6297826;22;20078;-77
2021/10/01 05:19:51;;;;;;;3.63;2.13;;;9.20;98.20;;;;;;6296118;22;20503;-75
2021/10/01 05:22:17;;;;;;;2.30;2.00;;;9.20;98.30;;;;;;6297156;22;20003;-76
2021/10/01 05:24:43;;;;;;;3.92;2.35;;;9.20;98.30;;;;;;6297542;22;20017;-76
2021/10/01 05:27:10;;;;;;;3.35;1.70;;;9.20;98.30;;;;;;6288131;22;20525;-77
2021/10/01 05:29:35;;;;;;;2.58;1.65;;;9.30;98.60;;;;;;6264706;22;20325;-76
2021/10/01 05:32:01;;;;;;;2.75;2.22;;;9.20;98.30;;;;;;6293499;22;19999;-75
2021/10/01 05:34:27;;;;;;;5.32;1.65;;;9.30;98.40;;;;;;6292442;22;20026;-76
2021/10/01 05:36:52;;;;;;;2.95;2.08;;;9.30;98.40;;;;;;6297829;22;20003;-76
2021/10/01 05:39:18;;;;;;;2.45;1.83;;;9.30;98.30;;;;;;6297457;22;20003;-77
2021/10/01 05:41:43;;;;;;;3.25;1.95;;;9.30;98.30;;;;;;6296782;22;20449;-76
2021/10/01 05:44:09;;;;;;;2.20;2.00;;;9.30;98.40;;;;;;6296101;22;20007;-77
2021/10/01 05:46:39;;;;;;;3.20;2.17;;;9.40;98.40;;;;;;6296923;22;20456;-76
2021/10/01 05:49:05;;;;;;;2.72;1.58;;;9.40;98.30;;;;;;6298629;22;20011;-76
2021/10/01 05:51:31;;;;;;;1.63;1.45;;;9.40;98.50;;;;;;6299189;22;19999;-76
2021/10/01 05:56:25;;;;;;;3.05;1.50;;;9.50;98.20;;;;;;6299594;22;20438;-76
2021/10/01 05:58:51;;;;;;;3.25;1.95;;;9.50;98.10;;;;;;6299877;22;19999;-76
2021/10/01 06:01:17;;;;;;;3.00;1.88;;;9.50;98.10;;;;;;6300099;22;19999;-77
2021/10/01 06:03:42;;;;;;;5.60;2.22;;;9.50;98.10;;;;;;6300703;22;20070;-76
2021/10/01 06:06:08;;;;;;;2.58;1.70;;;9.60;98.10;;;;;;6298416;22;20134;-77
2021/10/01 06:08:33;;;;;;;3.88;1.63;;;9.60;98.00;;;;;;6300007;22;20004;-77
2021/10/01 06:10:59;;;;;;;7.07;1.83;;;9.60;97.90;;;;;;6301228;22;20003;-76
2021/10/01 06:13:25;;;;;;;3.60;1.52;;;9.70;97.80;;;;;;6301455;22;20074;-77
2021/10/01 06:15:50;;;;;;;3.78;1.25;;;9.70;97.70;;;;;;6273062;22;20034;-77
2021/10/01 06:18:16;;;;;;;4.32;1.70;;;9.80;97.70;;;;;;6300644;22;20664;-76
2021/10/01 06:20:41;;;;;;;4.82;1.48;;;9.80;97.60;;;;;;6300848;22;20007;-76
2021/10/01 06:23:07;;;;;;;5.22;2.10;;;9.80;97.40;;;;;;6274034;22;19995;-78
2021/10/01 06:25:32;;;;;;;3.33;1.55;;;9.90;97.30;;;;;;6300631;22;20402;-77
2021/10/01 06:27:58;;;;;;;3.53;1.85;;;10.00;97.20;;;;;;6300589;22;20003;-77
2021/10/01 06:30:23;;;;;;;5.15;1.20;;;10.10;97.00;;;;;;6301222;22;19999;-77
2021/10/01 06:32:49;;;;;;;4.25;1.33;;;10.10;96.90;;;;;;6300254;22;20572;-76
2021/10/01 06:35:14;;;;;;;6.35;1.55;;;10.20;96.80;;;;;;6272617;22;20011;-75
2021/10/01 06:37:41;;;;;;;2.20;1.65;;;10.30;96.60;;;;;;6299680;22;20010;-76
2021/10/01 06:40:07;;;;;;;1.15;0.93;;;10.40;96.40;;;;;;6300648;22;20010;-76
2021/10/01 06:42:34;;;;;;;1.98;1.30;;;10.40;96.30;;;;;;6300435;22;20422;-78
2021/10/01 06:45:03;;;;;;;3.53;1.75;;;10.50;96.60;;;;;;6298675;22;20491;-77
2021/10/01 06:47:41;;;;;;;3.50;1.90;;;10.60;96.10;;;;;;6298907;22;20000;-77
2021/10/01 06:53:06;;;;;;;1.88;1.25;;;10.70;95.70;;;;;;6300149;22;20048;-77
2021/10/01 07:23:14;;;;;;;1.88;1.10;;;11.70;93.80;;;;;;6300132;22;20483;-77
2021/10/01 08:20:05;;;;;;;3.90;0.93;;;13.50;92.00;;;;;;6298781;22;20077;-76
2021/10/01 08:22:31;;;;;;;0.70;0.60;;;13.70;90.90;;;;;;6298698;22;20508;-76
2021/10/01 08:24:56;;;;;;;3.85;0.85;;;13.80;91.30;;;;;;6299223;22;20007;-76
2021/10/01 08:27:24;;;;;;;2.97;1.13;;;13.90;91.30;;;;;;6298320;22;20312;-76
2021/10/01 08:29:51;;;;;;;5.32;0.90;;;14.00;90.90;;;;;;6298371;22;20000;-76
2021/10/01 08:32:17;;;;;;;1.10;0.70;;;14.00;90.90;;;;;;6299223;22;20006;-76
2021/10/01 08:34:45;;;;;;;0.80;0.70;;;14.20;90.80;;;;;;6299166;22;20342;-77
2021/10/01 08:37:11;;;;;;;1.13;0.68;;;14.30;90.90;;;;;;6299052;22;20023;-76
2021/10/01 08:39:37;;;;;;;3.50;0.80;;;14.30;91.20;;;;;;6297750;22;20339;-76
2021/10/01 08:42:03;;;;;;;2.20;0.90;;;14.40;90.90;;;;;;6299068;22;20015;-77
2021/10/01 08:44:32;;;;;;;1.27;0.75;;;14.60;90.60;;;;;;6298205;22;19995;-76
2021/10/01 08:47:02;;;;;;;3.88;1.00;;;14.70;90.30;;;;;;6299574;22;20011;-76
2021/10/01 08:49:29;;;;;;;1.40;0.88;;;14.80;90.40;;;;;;6297828;22;20003;-77
2021/10/01 08:51:56;;;;;;;1.85;0.60;;;14.90;90.00;;;;;;6298974;22;20151;-76
2021/10/01 08:54:22;;;;;;;4.45;1.00;;;15.10;90.00;;;;;;6299731;22;20060;-76
2021/10/01 08:56:48;;;;;;;2.30;1.00;;;15.20;89.00;;;;;;6297999;22;20486;-76
2021/10/01 08:59:14;;;;;;;3.38;1.23;;;15.30;90.00;;;;;;6297848;22;20007;-76
2021/10/01 09:01:39;;;;;;;4.55;1.00;;;15.40;89.20;;;;;;6299373;22;20072;-76
2021/10/01 09:04:07;;;;;;;1.00;0.65;;;15.50;88.40;;;;;;6299094;22;20007;-77
2021/10/01 09:06:32;;;;;;;0.77;0.75;;;15.70;88.20;;;;;;6298187;22;20012;-76
2021/10/01 09:09:05;;;;;;;5.03;0.73;;;15.80;87.40;;;;;;6297897;22;20026;-76
2021/10/01 09:11:45;;;;;;;0.90;0.55;;;15.90;87.90;;;;;;6299353;22;19999;-76
2021/10/01 09:14:18;;;;;;;1.58;0.77;;;16.00;87.30;;;;;;6298663;22;20060;-76
2021/10/01 09:16:44;;;;;;;1.10;0.80;;;16.10;86.80;;;;;;6298799;22;20050;-77
2021/10/01 09:19:10;;;;;;;1.77;0.77;;;16.30;86.70;;;;;;6297949;22;20007;-76
2021/10/01 09:21:42;;;;;;;2.00;0.65;;;16.40;87.00;;;;;;6298264;22;20496;-77
2021/10/01 09:24:10;;;;;;;1.02;0.68;;;16.40;85.90;;;;;;6298708;22;20000;-77
2021/10/01 09:26:51;;;;;;;4.13;0.80;;;16.50;86.20;;;;;;6296388;22;20046;-76
2021/10/01 09:29:43;;;;;;;3.15;0.73;;;16.60;87.30;;;;;;6298182;22;19999;-76
2021/10/01 09:32:11;;;;;;;1.55;0.68;;;16.70;87.00;;;;;;6289134;22;20042;-77
2021/10/01 09:34:40;;;;;;;2.10;1.25;;;16.90;86.50;;;;;;6298529;22;20384;-77
2021/10/01 09:37:31;;;;;;;1.90;0.77;;;17.00;84.90;;;;;;6298749;22;20434;-77
2021/10/01 09:40:01;;;;;;;7.18;0.65;;;17.10;84.10;;;;;;6298078;22;20048;-77
2021/10/01 09:42:30;;;;;;;3.67;0.65;;;17.20;85.20;;;;;;6300028;22;20362;-76
2021/10/01 09:45:03;;;;;;;1.10;0.52;;;17.20;84.80;;;;;;6300374;22;20474;-77
2021/10/01 09:47:31;;;;;;;3.85;0.60;;;17.40;84.90;;;;;;6300642;22;20317;-76
2021/10/01 09:50:01;;;;;;;1.88;0.88;;;17.40;84.50;;;;;;6299881;22;20004;-77
2021/10/01 09:52:50;;;;;;;2.10;0.82;;;17.50;84.70;;;;;;6300906;22;20069;-76
2021/10/01 09:55:20;;;;;;;2.05;0.75;;;17.50;83.20;;;;;;6272897;22;20317;-77
2021/10/01 09:58:07;;;;;;;1.20;0.57;;;17.60;83.00;;;;;;6300339;22;20003;-76
2021/10/01 10:00:39;;;;;;;1.20;0.68;;;17.60;84.40;;;;;;6301345;22;20011;-76
2021/10/01 10:03:12;;;;;;;;;;;17.60;84.60;;;;;;6302904;22;20463;-76
2021/10/01 10:06:00;;;;;;;5.00;1.00;;;17.70;83.80;;;;;;6300796;22;19924;-77
2021/10/01 10:08:40;;;;;;;1.45;0.70;;;17.80;84.00;;;;;;6299969;22;20003;-76
2021/10/01 10:11:11;;;;;;;3.90;0.90;;;17.90;83.00;;;;;;6301484;22;20011;-76
2021/10/01 10:13:44;;;;;;;3.70;0.95;;;17.90;82.70;;;;;;6301203;22;20011;-76
2021/10/01 10:16:22;;;;;;;7.55;0.85;;;18.00;83.10;;;;;;6300010;22;20007;-77
2021/10/01 10:18:52;;;;;;;1.05;0.50;;;18.20;83.20;;;;;;6300156;22;19995;-76
2021/10/01 10:21:19;;;;;;;1.02;0.57;;;18.20;83.10;;;;;;6299939;22;20043;-77
2021/10/01 10:23:45;;;;;;;1.40;0.75;;;18.30;82.30;;;;;;6301216;22;20007;-75
2021/10/01 10:26:11;;;;;;;2.45;0.70;;;18.50;84.10;;;;;;6299119;22;20021;-77
2021/10/01 10:28:40;;;;;;;1.88;0.50;;;18.50;80.90;;;;;;6300324;22;20003;-77
2021/10/01 10:31:06;;;;;;;1.70;0.65;;;18.60;83.20;;;;;;6300410;22;20010;-77
2021/10/01 10:33:49;;;;;;;2.05;0.65;;;18.70;82.30;;;;;;6274242;22;20338;-77
2021/10/01 10:36:35;;;;;;;1.52;0.77;;;18.70;79.80;;;;;;6299714;22;20011;-76
2021/10/01 10:39:12;;;;;;;0.90;0.63;;;18.80;80.60;;;;;;6299865;22;20065;-77
2021/10/01 10:42:00;;;;;;;1.55;0.60;;;18.80;80.30;;;;;;6300936;22;20064;-77
2021/10/01 10:44:40;;;;;;;2.15;0.75;;;18.90;78.50;;;;;;6300919;22;20072;-76
2021/10/01 10:47:05;;;;;;;1.02;0.70;;;18.90;79.10;;;;;;6300539;22;20011;-76
2021/10/01 10:49:31;;;;;;;1.27;0.60;;;19.00;79.80;;;;;;6298633;22;20004;-76
2021/10/01 10:52:26;;;;;;;4.75;0.85;;;19.00;80.30;;;;;;6300808;22;20048;-77
2021/10/01 10:55:09;;;;;;;5.47;0.52;;;19.10;80.00;;;;;;6299512;22;20003;-77
2021/10/01 10:57:37;;;;;;;6.45;0.50;;;19.20;79.70;;;;;;6299544;22;20076;-77
2021/10/01 11:00:29;;;;;;;1.98;0.60;;;19.30;79.10;;;;;;6300304;22;20011;-77
2021/10/01 11:03:17;;;;;;;2.25;0.35;;;19.40;79.10;;;;;;6300247;22;20095;-77
2021/10/01 11:05:42;;;;;;;0.85;0.40;;;19.50;77.40;;;;;;6300479;22;20083;-76
2021/10/01 11:08:22;;;;;;;2.67;0.68;;;19.60;76.50;;;;;;6299934;22;20462;-76
2021/10/01 11:10:49;;;;;;;3.38;0.70;;;19.70;77.80;;;;;;6299831;22;20121;-76
2021/10/01 11:13:24;;;;;;;2.95;0.60;;;19.70;76.20;;;;;;6300666;22;20000;-76
2021/10/01 11:16:08;;;;;;;1.75;0.50;;;19.80;75.20;;;;;;6300303;22;20585;-76
2021/10/01 11:18:53;;;;;;;0.82;0.40;;;19.90;74.20;;;;;;6299806;22;20002;-76
2021/10/01 11:21:25;;;;;;;14.20;1.58;;;19.90;76.10;;;;;;6298449;22;20318;-76
2021/10/01 11:24:14;;;;;;;1.13;0.47;;;19.90;74.10;;;;;;6301164;22;20003;-76
2021/10/01 11:26:55;;;;;;;0.65;0.38;;;19.90;77.60;;;;;;6272037;22;20026;-75
2021/10/01 11:29:37;;;;;;;1.73;0.65;;;20.00;77.50;;;;;;6299403;22;20026;-75
2021/10/01 11:32:17;;;;;;;0.95;0.50;;;20.10;74.30;;;;;;6299257;22;20003;-75
2021/10/01 11:35:00;;;;;;;0.82;0.50;;;20.20;74.00;;;;;;6300736;22;20699;-76
2021/10/01 11:37:29;;;;;;;1.02;0.60;;;20.40;71.70;;;;;;6300105;22;20041;-76
2021/10/01 11:40:06;;;;;;;1.40;0.47;;;20.40;72.70;;;;;;6300154;22;19995;-76
2021/10/01 11:42:41;;;;;;;3.83;0.75;;;20.50;71.10;;;;;;6300058;22;20010;-76
2021/10/01 11:45:12;;;;;;;3.55;0.60;;;20.50;71.80;;;;;;6299834;22;20034;-76
2021/10/01 11:47:56;;;;;;;0.93;0.50;;;20.60;73.10;;;;;;6300128;22;19999;-75
2021/10/01 11:50:44;;;;;;;1.73;0.40;;;20.70;73.30;;;;;;6299244;22;20003;-75
2021/10/01 11:53:18;;;;;;;1.40;0.55;;;20.90;72.50;;;;;;6300653;22;20007;-75
2021/10/01 11:55:54;;;;;;;1.50;0.60;;;21.00;73.30;;;;;;6299665;22;20010;-75
2021/10/01 11:58:21;;;;;;;1.77;0.70;;;21.10;71.80;;;;;;6271984;22;20007;-78
2021/10/01 12:00:47;;;;;;;2.25;0.63;;;21.30;70.50;;;;;;6299223;22;20003;-76
2021/10/01 12:03:14;;;;;;;2.97;0.68;;;21.30;69.90;;;;;;6300861;22;20006;-77
2021/10/01 12:05:44;;;;;;;1.98;0.50;;;21.40;69.40;;;;;;6299126;22;20015;-76
2021/10/01 12:08:11;;;;;;;1.58;0.57;;;21.50;70.80;;;;;;6298624;22;20011;-76
2021/10/01 12:10:40;;;;;;;1.00;0.45;;;21.50;69.30;;;;;;6299819;22;20481;-77
2021/10/01 12:13:10;;;;;;;0.40;0.38;;;21.50;69.30;;;;;;6299801;22;20056;-76
2021/10/01 12:15:51;;;;;;;1.25;0.55;;;21.60;68.20;;;;;;6299854;22;20057;-76
2021/10/01 12:18:41;;;;;;;0.77;0.40;;;21.70;67.30;;;;;;6298895;22;20338;-76
2021/10/01 12:21:10;;;;;;;1.00;0.50;;;21.80;66.60;;;;;;6298881;22;20027;-76
2021/10/01 12:23:39;;;;;;;0.95;0.40;;;21.90;65.20;;;;;;6300208;22;20003;-77
2021/10/01 12:26:22;;;;;;;6.68;0.70;;;21.90;66.50;;;;;;6299000;22;20023;-76
2021/10/01 12:28:53;;;;;;;;;;;21.90;65.90;;;;;;6300028;22;20167;-76
2021/10/01 12:31:19;;;;;;;1.27;0.35;;;21.90;66.20;;;;;;6298400;22;20194;-76
2021/10/01 12:33:46;;;;;;;1.13;0.50;;;21.90;64.30;;;;;;6299755;22;20633;-77
2021/10/01 12:36:11;;;;;;;2.85;0.40;;;21.90;65.40;;;;;;6299293;22;20014;-77
2021/10/01 12:38:37;;;;;;;0.45;0.35;;;22.00;66.10;;;;;;6298494;22;20645;-76
2021/10/01 12:41:15;;;;;;;2.38;0.50;;;22.00;66.80;;;;;;6298714;22;20001;-76
2021/10/01 12:43:49;;;;;;;1.38;0.50;;;22.00;64.60;;;;;;6299432;22;19999;-76
2021/10/01 12:46:46;;;;;;;4.43;0.50;;;22.00;64.70;;;;;;6298871;22;20014;-77
2021/10/01 12:49:26;;;;;;;1.98;0.50;;;22.10;63.40;;;;;;6298563;22;20000;-77
2021/10/01 12:52:04;;;;;;;0.82;0.50;;;22.10;64.70;;;;;;6298799;22;20006;-77
2021/10/01 12:54:43;;;;;;;1.02;0.47;;;22.10;64.50;;;;;;6299712;22;20007;-78
2021/10/01 12:57:17;;;;;;;1.50;0.50;;;22.10;66.50;;;;;;6299533;22;20027;-77
2021/10/01 12:59:57;;;;;;;1.95;0.40;;;22.10;63.40;;;;;;6298742;22;20092;-78
2021/10/01 13:02:37;;;;;;;1.02;0.50;;;22.20;65.10;;;;;;6298627;22;19995;-78
2021/10/01 13:05:10;;;;;;;2.55;0.40;;;22.20;63.80;;;;;;6299598;22;20018;-76
2021/10/01 13:07:38;;;;;;;0.93;0.40;;;22.20;61.80;;;;;;6296763;22;20007;-77
2021/10/01 13:10:16;;;;;;;0.55;0.40;;;22.20;62.40;;;;;;6299487;22;19991;-76
2021/10/01 13:12:54;;;;;;;2.00;0.60;;;22.20;63.80;;;;;;6298503;22;20003;-77
2021/10/01 13:15:23;;;;;;;1.13;0.50;;;22.20;63.80;;;;;;6300204;22;20023;-76
2021/10/01 13:18:04;;;;;;;1.30;0.60;;;22.20;60.70;;;;;;6300507;22;20397;-76
2021/10/01 13:20:32;;;;;;;0.52;0.40;;;22.20;62.20;;;;;;6300782;22;20008;-77
2021/10/01 13:23:03;;;;;;;0.70;0.40;;;22.10;60.10;;;;;;6301522;22;19996;-75
2021/10/01 13:25:38;;;;;;;0.57;0.40;;;22.00;61.00;;;;;;6300589;22;20011;-77
2021/10/01 13:28:05;;;;;;;0.93;0.60;;;22.00;62.30;;;;;;6301204;22;20011;-77
2021/10/01 13:30:31;;;;;;;2.10;0.90;;;22.10;63.10;;;;;;6299016;22;20015;-76
2021/10/01 13:32:57;;;;;;;0.75;0.40;;;22.10;62.10;;;;;;6291611;22;20123;-76
2021/10/01 13:35:23;;;;;;;0.60;0.40;;;22.10;61.50;;;;;;6301829;22;20820;-76
2021/10/01 13:37:49;;;;;;;0.77;0.52;;;22.10;60.60;;;;;;6299878;22;20128;-77
2021/10/01 13:40:15;;;;;;;0.88;0.60;;;22.10;62.70;;;;;;6301689;22;20065;-74
2021/10/01 13:42:41;;;;;;;0.70;0.40;;;22.10;63.10;;;;;;6301298;22;20003;-77
2021/10/01 13:45:08;;;;;;;2.20;0.47;;;22.10;61.60;;;;;;6300567;22;20041;-77
2021/10/01 13:47:34;;;;;;;0.68;0.50;;;22.10;60.00;;;;;;6301343;22;20031;-77
2021/10/01 13:50:01;;;;;;;1.25;0.40;;;22.00;59.60;;;;;;6300674;22;20026;-77
2021/10/01 13:52:58;;;;;;;1.88;0.68;;;22.00;59.60;;;;;;6299991;22;20057;-77
2021/10/01 13:55:23;;;;;;;0.60;0.40;;;22.10;60.10;;;;;;6299903;22;20341;-77
2021/10/01 13:57:49;;;;;;;0.95;0.65;;;22.10;60.20;;;;;;6299160;22;19999;-77
2021/10/01 14:00:18;;;;;;;2.45;0.55;;;22.10;59.40;;;;;;6302429;22;20007;-78
2021/10/01 14:02:43;;;;;;;5.70;1.42;;;22.00;60.00;;;;;;6301329;22;20017;-77
2021/10/01 14:05:11;;;;;;;2.80;0.60;;;22.10;59.40;;;;;;6302196;22;20382;-76
2021/10/01 14:07:38;;;;;;;2.47;1.10;;;22.00;59.10;;;;;;6301397;22;20057;-77
2021/10/01 14:10:07;;;;;;;1.98;0.43;;;21.90;60.50;;;;;;6301704;22;20079;-77
2021/10/01 14:12:32;;;;;;;1.10;0.50;;;21.90;60.50;;;;;;6301072;22;20381;-76
2021/10/01 14:14:58;;;;;;;2.97;0.50;;;21.80;61.00;;;;;;6301614;22;19995;-77
2021/10/01 14:17:24;;;;;;;1.98;0.40;;;21.80;62.20;;;;;;6302000;22;20006;-76
2021/10/01 14:19:50;;;;;;;0.90;0.43;;;21.90;61.70;;;;;;6300494;22;20037;-76
2021/10/01 14:22:17;;;;;;;0.98;0.45;;;21.80;61.10;;;;;;6300994;22;19999;-76
2021/10/01 14:24:42;;;;;;;0.60;0.60;;;21.70;62.00;;;;;;6301532;22;20006;-77
2021/10/01 14:27:09;;;;;;;3.40;0.70;;;21.70;61.00;;;;;;6301424;22;20011;-76
2021/10/01 14:29:35;;;;;;;1.50;0.40;;;21.70;60.10;;;;;;6300437;22;20090;-77
2021/10/01 14:32:01;;;;;;;0.80;0.40;;;21.70;60.30;;;;;;6301506;22;20084;-77
2021/10/01 14:34:26;;;;;;;0.70;0.35;;;21.70;60.20;;;;;;6302180;22;19999;-76